createdAt,value
2022-11-07T00:01:11.694Z,954.24
2022-11-07T00:03:38.008Z,954.24
2022-11-07T00:06:04.341Z,954.19
2022-11-07T00:08:30.676Z,954.22
2022-11-07T00:10:56.997Z,954.19
2022-11-07T00:13:23.325Z,954.23
2022-11-07T00:15:49.670Z,954.23
2022-11-07T00:18:16.011Z,954.21
2022-11-07T00:20:42.366Z,954.17
2022-11-07T00:23:08.685Z,954.18
2022-11-07T00:25:35.018Z,954.22
2022-11-07T00:28:01.340Z,954.17
2022-11-07T00:30:27.680Z,954.21
2022-11-07T00:32:59.023Z,954.26
2022-11-07T00:35:20.342Z,954.21
2022-11-07T00:37:46.662Z,954.25
2022-11-07T00:40:13.005Z,954.26
2022-11-07T00:42:39.343Z,954.29
2022-11-07T00:45:05.684Z,954.17
2022-11-07T00:47:32.035Z,954.24
2022-11-07T00:49:58.357Z,954.24
2022-11-07T00:52:24.718Z,954.31
2022-11-07T00:54:51.035Z,954.26
2022-11-07T00:57:17.361Z,954.27
2022-11-07T00:59:43.679Z,954.24
2022-11-07T01:02:10.154Z,954.20
2022-11-07T01:04:36.345Z,954.17
2022-11-07T01:07:02.666Z,954.14
2022-11-07T01:09:29.003Z,954.14
2022-11-07T01:11:55.342Z,954.18
2022-11-07T01:14:21.671Z,954.09
2022-11-07T01:16:48.014Z,954.12
2022-11-07T01:19:14.355Z,954.03
2022-11-07T01:21:40.677Z,954.05
2022-11-07T01:24:07.007Z,953.99
2022-11-07T01:26:33.342Z,953.98
2022-11-07T01:28:59.697Z,954.02
2022-11-07T01:31:26.057Z,953.86
2022-11-07T01:33:52.376Z,953.90
2022-11-07T01:36:18.708Z,953.88
2022-11-07T01:38:45.061Z,953.91
2022-11-07T01:41:11.383Z,953.92
2022-11-07T01:43:37.708Z,953.89
2022-11-07T01:46:04.048Z,953.96
2022-11-07T01:48:30.365Z,953.95
2022-11-07T01:50:56.706Z,954.00
2022-11-07T01:53:23.053Z,953.98
2022-11-07T01:55:49.371Z,954.02
2022-11-07T01:58:15.725Z,954.00
2022-11-07T02:00:42.064Z,953.96
2022-11-07T02:03:08.430Z,953.97
2022-11-07T02:05:34.786Z,953.98
2022-11-07T02:08:01.088Z,954.02
2022-11-07T02:10:27.414Z,953.95
2022-11-07T02:12:53.739Z,954.00
2022-11-07T02:15:20.116Z,953.99
2022-11-07T02:17:46.444Z,953.99
2022-11-07T02:20:12.762Z,954.04
2022-11-07T02:22:39.142Z,954.01
2022-11-07T02:25:05.479Z,953.97
2022-11-07T02:27:31.820Z,954.03
2022-11-07T02:29:58.194Z,954.02
2022-11-07T02:32:24.514Z,953.97
2022-11-07T02:34:50.857Z,953.97
2022-11-07T02:37:17.234Z,953.94
2022-11-07T02:39:43.570Z,954.01
2022-11-07T02:42:09.884Z,954.03
2022-11-07T02:44:36.212Z,954.04
2022-11-07T02:47:02.525Z,954.05
2022-11-07T02:49:28.848Z,954.06
2022-11-07T02:51:55.230Z,954.11
2022-11-07T02:54:21.610Z,954.05
2022-11-07T02:56:47.909Z,954.07
2022-11-07T02:59:14.296Z,954.07
2022-11-07T03:01:40.650Z,954.05
2022-11-07T03:04:06.921Z,954.01
2022-11-07T03:06:33.275Z,954.04
2022-11-07T03:08:59.598Z,954.02
2022-11-07T03:11:25.938Z,954.02
2022-11-07T03:13:52.320Z,953.99
2022-11-07T03:16:18.658Z,954.04
2022-11-07T03:18:44.999Z,954.10
2022-11-07T03:21:11.316Z,954.11
2022-11-07T03:23:37.708Z,954.09
2022-11-07T03:26:04.013Z,954.15
2022-11-07T03:28:30.351Z,954.13
2022-11-07T03:30:56.692Z,954.24
2022-11-07T03:33:23.012Z,954.28
2022-11-07T03:35:49.354Z,954.35
2022-11-07T03:38:15.697Z,954.35
2022-11-07T03:40:42.030Z,954.39
2022-11-07T03:43:08.377Z,954.43
2022-11-07T03:45:34.717Z,954.42
2022-11-07T03:48:01.067Z,954.46
2022-11-07T03:50:27.381Z,954.45
2022-11-07T03:52:53.755Z,954.46
2022-11-07T03:55:20.068Z,954.47
2022-11-07T03:57:46.393Z,954.51
2022-11-07T04:00:12.772Z,954.58
2022-11-07T04:02:39.273Z,954.64
2022-11-07T04:05:05.426Z,954.72
2022-11-07T04:07:31.768Z,954.71
2022-11-07T04:09:58.107Z,954.67
2022-11-07T04:12:24.425Z,954.67
2022-11-07T04:14:50.769Z,954.74
2022-11-07T04:17:17.112Z,954.76
2022-11-07T04:19:43.458Z,954.72
2022-11-07T04:22:09.812Z,954.80
2022-11-07T04:24:37.492Z,954.74
2022-11-07T04:27:02.469Z,954.69
2022-11-07T04:29:28.815Z,954.64
2022-11-07T04:31:55.136Z,954.71
2022-11-07T04:34:21.477Z,954.68
2022-11-07T04:36:47.843Z,954.72
2022-11-07T04:39:14.158Z,954.78
2022-11-07T04:41:40.482Z,954.73
2022-11-07T04:44:06.803Z,954.77
2022-11-07T04:46:33.131Z,954.83
2022-11-07T04:48:59.469Z,954.75
2022-11-07T04:51:25.793Z,954.80
2022-11-07T04:53:52.112Z,954.75
2022-11-07T04:56:18.458Z,954.84
2022-11-07T04:58:44.793Z,954.87
2022-11-07T05:01:11.135Z,954.90
2022-11-07T05:03:41.513Z,954.94
2022-11-07T05:06:03.831Z,954.94
2022-11-07T05:08:30.147Z,954.93
2022-11-07T05:10:56.504Z,954.94
2022-11-07T05:13:22.860Z,954.91
2022-11-07T05:15:49.181Z,955.03
2022-11-07T05:18:15.500Z,955.01
2022-11-07T05:20:41.844Z,954.97
2022-11-07T05:23:08.160Z,955.01
2022-11-07T05:25:34.515Z,955.05
2022-11-07T05:28:00.834Z,955.05
2022-11-07T05:30:27.198Z,955.07
2022-11-07T05:32:53.518Z,955.24
2022-11-07T05:35:19.847Z,955.21
2022-11-07T05:37:46.203Z,955.26
2022-11-07T05:40:12.541Z,955.24
2022-11-07T05:42:38.871Z,955.27
2022-11-07T05:45:05.225Z,955.26
2022-11-07T05:47:31.549Z,955.26
2022-11-07T05:49:57.875Z,955.28
2022-11-07T05:52:24.229Z,955.41
2022-11-07T05:54:50.571Z,955.45
2022-11-07T05:57:16.893Z,955.47
2022-11-07T05:59:43.588Z,955.45
2022-11-07T06:02:10.019Z,955.45
2022-11-07T06:04:36.255Z,955.47
2022-11-07T06:07:02.632Z,955.42
2022-11-07T06:09:29.048Z,955.51
2022-11-07T06:11:55.364Z,955.58
2022-11-07T06:14:21.753Z,955.56
2022-11-07T06:16:48.071Z,955.56
2022-11-07T06:19:14.394Z,955.57
2022-11-07T06:21:40.730Z,955.58
2022-11-07T06:24:08.849Z,955.54
2022-11-07T06:26:33.439Z,955.65
2022-11-07T06:28:59.778Z,955.65
2022-11-07T06:31:26.097Z,955.70
2022-11-07T06:33:52.446Z,955.69
2022-11-07T06:36:18.784Z,955.73
2022-11-07T06:38:45.105Z,955.81
2022-11-07T06:41:11.447Z,955.83
2022-11-07T06:43:37.790Z,955.85
2022-11-07T06:46:04.107Z,955.80
2022-11-07T06:48:30.448Z,955.85
2022-11-07T06:50:56.815Z,955.85
2022-11-07T06:53:23.142Z,955.85
2022-11-07T06:55:49.502Z,955.89
2022-11-07T06:58:15.842Z,955.90
2022-11-07T07:00:42.205Z,955.87
2022-11-07T07:03:08.579Z,955.92
2022-11-07T07:05:34.885Z,955.94
2022-11-07T07:08:01.209Z,955.96
2022-11-07T07:10:27.551Z,955.94
2022-11-07T07:12:53.909Z,955.95
2022-11-07T07:15:20.223Z,955.97
2022-11-07T07:17:46.572Z,955.91
2022-11-07T07:20:12.896Z,955.94
2022-11-07T07:22:39.241Z,955.97
2022-11-07T07:25:05.596Z,956.02
2022-11-07T07:27:31.941Z,956.02
2022-11-07T07:29:58.259Z,956.04
2022-11-07T07:32:24.587Z,956.05
2022-11-07T07:34:50.906Z,956.08
2022-11-07T07:37:17.277Z,956.04
2022-11-07T07:39:43.613Z,956.04
2022-11-07T07:42:09.952Z,956.06
2022-11-07T07:44:36.319Z,956.08
2022-11-07T07:47:04.918Z,956.07
2022-11-07T07:49:28.975Z,956.11
2022-11-07T07:51:55.302Z,956.05
2022-11-07T07:54:21.622Z,956.01
2022-11-07T07:56:47.965Z,956.05
2022-11-07T07:59:14.304Z,956.07
2022-11-07T08:01:40.743Z,956.03
2022-11-07T08:04:06.985Z,956.11
2022-11-07T08:06:33.349Z,956.11
2022-11-07T08:08:59.662Z,956.10
2022-11-07T08:11:26.009Z,956.04
2022-11-07T08:13:53.144Z,956.09
2022-11-07T08:16:18.715Z,956.03
2022-11-07T08:18:45.027Z,956.08
2022-11-07T08:21:11.419Z,956.06
2022-11-07T08:23:37.752Z,956.01
2022-11-07T08:26:04.080Z,956.09
2022-11-07T08:28:30.433Z,956.09
2022-11-07T08:30:56.776Z,956.12
2022-11-07T08:33:23.147Z,956.06
2022-11-07T08:35:49.417Z,956.13
2022-11-07T08:38:15.781Z,956.12
2022-11-07T08:40:42.125Z,956.14
2022-11-07T08:43:08.440Z,956.19
2022-11-07T08:45:34.763Z,956.20
2022-11-07T08:48:01.124Z,956.20
2022-11-07T08:50:27.466Z,956.16
2022-11-07T08:52:58.197Z,956.13
2022-11-07T08:55:20.148Z,956.17
2022-11-07T08:57:46.502Z,956.16
2022-11-07T09:00:12.848Z,956.13
2022-11-07T09:03:17.797Z,956.20
2022-11-07T09:05:05.538Z,956.18
2022-11-07T09:07:31.844Z,956.18
2022-11-07T09:09:58.211Z,956.22
2022-11-07T09:12:24.575Z,956.24
2022-11-07T09:14:50.914Z,956.24
2022-11-07T09:17:17.249Z,956.22
2022-11-07T09:19:43.573Z,956.19
2022-11-07T09:22:09.916Z,956.18
2022-11-07T09:24:36.263Z,956.25
2022-11-07T09:27:02.588Z,956.23
2022-11-07T09:29:28.909Z,956.17
2022-11-07T09:31:55.249Z,956.15
2022-11-07T09:34:21.594Z,956.12
2022-11-07T09:36:47.968Z,956.11
2022-11-07T09:39:14.292Z,956.07
2022-11-07T09:41:40.631Z,956.06
2022-11-07T09:44:07.002Z,956.02
2022-11-07T09:46:33.341Z,956.03
2022-11-07T09:48:59.678Z,956.00
2022-11-07T09:51:26.033Z,956.02
2022-11-07T09:53:52.374Z,955.99
2022-11-07T09:56:18.712Z,955.98
2022-11-07T09:58:45.082Z,955.96
2022-11-07T10:01:11.507Z,956.05
2022-11-07T10:03:37.722Z,955.98
2022-11-07T10:06:04.045Z,955.99
2022-11-07T10:08:30.393Z,955.95
2022-11-07T10:10:56.733Z,956.06
2022-11-07T10:13:23.072Z,956.00
2022-11-07T10:15:49.414Z,956.03
2022-11-07T10:18:15.751Z,955.90
2022-11-07T10:20:42.106Z,955.83
2022-11-07T10:23:08.452Z,955.73
2022-11-07T10:25:34.791Z,955.69
2022-11-07T10:28:01.136Z,955.72
2022-11-07T10:30:27.491Z,955.70
2022-11-07T10:32:53.840Z,955.65
2022-11-07T10:35:20.158Z,955.69
2022-11-07T10:37:46.505Z,955.58
2022-11-07T10:40:12.823Z,955.67
2022-11-07T10:42:39.170Z,955.58
2022-11-07T10:45:05.546Z,955.54
2022-11-07T10:47:31.814Z,955.57
2022-11-07T10:49:58.141Z,955.51
2022-11-07T10:52:24.592Z,955.39
2022-11-07T10:54:50.930Z,955.44
2022-11-07T10:57:17.262Z,955.36
2022-11-07T10:59:43.604Z,955.44
2022-11-07T11:02:10.032Z,955.43
2022-11-07T11:04:36.294Z,955.47
2022-11-07T11:07:02.633Z,955.35
2022-11-07T11:09:28.992Z,955.30
2022-11-07T11:11:55.319Z,955.29
2022-11-07T11:14:21.639Z,955.23
2022-11-07T11:16:48.045Z,955.19
2022-11-07T11:19:14.343Z,955.24
2022-11-07T11:21:40.665Z,955.15
2022-11-07T11:24:07.049Z,955.18
2022-11-07T11:26:33.394Z,955.20
2022-11-07T11:28:59.710Z,955.17
2022-11-07T11:31:26.045Z,955.11
2022-11-07T11:33:52.393Z,955.04
2022-11-07T11:36:18.723Z,954.96
2022-11-07T11:38:45.101Z,954.97
2022-11-07T11:41:11.423Z,954.97
2022-11-07T11:43:37.743Z,954.94
2022-11-07T11:46:04.090Z,954.89
2022-11-07T11:48:30.471Z,954.89
2022-11-07T11:50:56.836Z,954.88
2022-11-07T11:53:23.174Z,954.86
2022-11-07T11:55:52.235Z,954.85
2022-11-07T11:58:15.909Z,954.77
2022-11-07T12:00:42.356Z,954.77
2022-11-07T12:03:08.662Z,954.79
2022-11-07T12:05:35.008Z,954.75
2022-11-07T12:08:01.348Z,954.75
2022-11-07T12:10:27.706Z,954.70
2022-11-07T12:12:54.089Z,954.73
2022-11-07T12:15:20.414Z,954.67
2022-11-07T12:17:46.786Z,954.61
2022-11-07T12:20:13.194Z,954.61
2022-11-07T12:22:39.457Z,954.62
2022-11-07T12:25:05.774Z,954.64
2022-11-07T12:27:32.148Z,954.61
2022-11-07T12:29:58.478Z,954.54
2022-11-07T12:32:24.837Z,954.54
2022-11-07T12:34:51.201Z,954.46
2022-11-07T12:37:17.540Z,954.53
2022-11-07T12:39:43.888Z,954.54
2022-11-07T12:42:10.243Z,954.56
2022-11-07T12:44:36.590Z,954.51
2022-11-07T12:47:02.939Z,954.51
2022-11-07T12:49:29.284Z,954.44
2022-11-07T12:51:55.626Z,954.49
2022-11-07T12:54:21.991Z,954.50
2022-11-07T12:56:48.338Z,954.42
2022-11-07T12:59:14.673Z,954.44
2022-11-07T13:01:41.137Z,954.43
2022-11-07T13:04:07.431Z,954.41
2022-11-07T13:06:33.815Z,954.42
2022-11-07T13:09:00.150Z,954.45
2022-11-07T13:11:26.436Z,954.42
2022-11-07T13:13:52.766Z,954.39
2022-11-07T13:16:19.111Z,954.40
2022-11-07T13:18:45.462Z,954.42
2022-11-07T13:21:11.788Z,954.37
2022-11-07T13:23:38.128Z,954.37
2022-11-07T13:26:20.333Z,954.42
2022-11-07T13:28:30.796Z,954.46
2022-11-07T13:30:57.302Z,954.43
2022-11-07T13:33:23.618Z,954.47
2022-11-07T13:35:49.960Z,954.50
2022-11-07T13:38:16.314Z,954.52
2022-11-07T13:40:42.659Z,954.44
2022-11-07T13:43:08.998Z,954.46
2022-11-07T13:45:35.333Z,954.52
2022-11-07T13:48:01.674Z,954.45
2022-11-07T13:50:28.020Z,954.44
2022-11-07T13:52:54.340Z,954.53
2022-11-07T13:55:20.675Z,954.48
2022-11-07T13:57:47.012Z,954.48
2022-11-07T14:00:13.438Z,954.51
2022-11-07T14:02:39.777Z,954.49
2022-11-07T14:05:21.544Z,954.48
2022-11-07T14:07:32.460Z,954.48
2022-11-07T14:09:58.821Z,954.53
2022-11-07T14:12:25.157Z,954.58
2022-11-07T14:14:51.524Z,954.57
2022-11-07T14:17:17.847Z,954.57
2022-11-07T14:19:44.240Z,954.59
2022-11-07T14:22:14.644Z,954.57
2022-11-07T14:24:36.880Z,954.59
2022-11-07T14:27:03.261Z,954.56
2022-11-07T14:29:29.593Z,954.63
2022-11-07T14:31:55.941Z,954.54
2022-11-07T14:34:22.393Z,954.61
2022-11-07T14:36:49.134Z,954.64
2022-11-07T14:39:15.900Z,954.61
2022-11-07T14:41:41.756Z,954.61
2022-11-07T14:44:08.089Z,954.59
2022-11-07T14:46:34.409Z,954.62
2022-11-07T14:49:00.770Z,954.58
2022-11-07T14:51:27.127Z,954.68
2022-11-07T14:53:53.527Z,954.68
2022-11-07T14:56:19.852Z,954.62
2022-11-07T14:58:46.225Z,954.65
2022-11-07T15:01:12.610Z,954.66
2022-11-07T15:03:38.904Z,954.67
2022-11-07T15:06:05.219Z,954.63
2022-11-07T15:08:31.635Z,954.68
2022-11-07T15:10:57.931Z,954.71
2022-11-07T15:13:26.175Z,954.62
2022-11-07T15:15:52.557Z,954.77
2022-11-07T15:18:19.118Z,954.74
2022-11-07T15:20:45.218Z,954.79
2022-11-07T15:23:11.552Z,954.80
2022-11-07T15:25:37.903Z,954.82
2022-11-07T15:28:04.261Z,954.79
2022-11-07T15:30:30.620Z,954.70
2022-11-07T15:32:56.968Z,954.71
2022-11-07T15:35:42.929Z,954.71
2022-11-07T15:37:49.661Z,954.75
2022-11-07T15:40:15.995Z,954.78
2022-11-07T15:42:42.400Z,954.84
2022-11-07T15:45:08.740Z,954.86
2022-11-07T15:47:35.086Z,954.87
2022-11-07T15:50:01.407Z,954.94
2022-11-07T15:52:27.747Z,954.93
2022-11-07T15:54:54.064Z,954.91
2022-11-07T15:57:20.408Z,954.93
2022-11-07T15:59:46.778Z,954.93
2022-11-07T16:02:13.262Z,954.95
2022-11-07T16:04:39.972Z,954.90
2022-11-07T16:07:05.851Z,954.97
2022-11-07T16:09:32.197Z,954.98
2022-11-07T16:11:58.526Z,954.98
2022-11-07T16:16:51.207Z,955.10
2022-11-07T16:19:17.552Z,955.19
2022-11-07T16:21:43.914Z,955.16
2022-11-07T16:24:10.270Z,955.24
2022-11-07T16:26:36.686Z,955.28
2022-11-07T16:29:03.037Z,955.29
2022-11-07T16:31:29.383Z,955.32
2022-11-07T16:33:55.769Z,955.37
2022-11-07T16:36:22.062Z,955.36
2022-11-07T16:38:48.381Z,955.43
2022-11-07T16:41:14.736Z,955.46
2022-11-07T16:43:41.049Z,955.47
2022-11-07T16:46:07.384Z,955.50
2022-11-07T16:48:33.742Z,955.45
2022-11-07T16:51:00.098Z,955.56
2022-11-07T16:53:26.429Z,955.60
2022-11-07T16:55:54.014Z,955.59
2022-11-07T16:58:19.128Z,955.65
2022-11-07T17:00:45.466Z,955.66
2022-11-07T17:03:11.810Z,955.66
2022-11-07T17:05:38.115Z,955.68
2022-11-07T17:08:04.461Z,955.66
2022-11-07T17:10:30.847Z,955.64
2022-11-07T17:12:57.179Z,955.67
2022-11-07T17:15:23.524Z,955.70
2022-11-07T17:17:49.881Z,955.70
2022-11-07T17:20:28.453Z,955.69
2022-11-07T17:22:42.570Z,955.68
2022-11-07T17:25:08.895Z,955.59
2022-11-07T17:27:35.237Z,955.54
2022-11-07T17:30:05.898Z,955.61
2022-11-07T17:32:27.907Z,955.56
2022-11-07T17:35:18.127Z,955.61
2022-11-07T17:37:20.644Z,955.60
2022-11-07T17:39:47.032Z,955.52
2022-11-07T17:42:13.371Z,955.59
2022-11-07T17:44:39.725Z,955.61
2022-11-07T17:47:06.066Z,955.66
2022-11-07T17:49:32.416Z,955.69
2022-11-07T17:51:58.741Z,955.67
2022-11-07T17:54:29.347Z,955.68
2022-11-07T17:56:51.446Z,955.69
2022-11-07T17:59:17.769Z,955.76
2022-11-07T18:01:44.184Z,955.71
2022-11-07T18:04:10.446Z,955.75
2022-11-07T18:06:36.889Z,955.71
2022-11-07T18:09:03.260Z,955.78
2022-11-07T18:11:29.614Z,955.72
2022-11-07T18:13:55.996Z,955.72
2022-11-07T18:16:22.317Z,955.78
2022-11-07T18:18:48.676Z,955.73
2022-11-07T18:21:15.048Z,955.76
2022-11-07T18:23:41.373Z,955.73
2022-11-07T18:26:07.695Z,955.72
2022-11-07T18:28:34.132Z,955.67
2022-11-07T18:31:00.530Z,955.68
2022-11-07T18:33:26.986Z,955.70
2022-11-07T18:35:53.330Z,955.64
2022-11-07T18:38:19.742Z,955.61
2022-11-07T18:40:46.194Z,955.53
2022-11-07T18:43:12.533Z,955.62
2022-11-07T18:45:38.879Z,955.60
2022-11-07T18:48:05.243Z,955.66
2022-11-07T18:50:31.576Z,955.56
2022-11-07T18:52:57.906Z,955.63
2022-11-07T18:55:27.479Z,955.64
2022-11-07T18:57:50.654Z,955.74
2022-11-07T19:00:16.953Z,955.76
2022-11-07T19:02:43.289Z,955.79
2022-11-07T19:05:09.615Z,955.76
2022-11-07T19:07:35.945Z,955.79
2022-11-07T19:10:02.301Z,955.82
2022-11-07T19:12:28.741Z,955.85
2022-11-07T19:14:55.028Z,955.89
2022-11-07T19:17:21.671Z,955.92
2022-11-07T19:19:47.989Z,955.94
2022-11-07T19:22:14.377Z,956.01
2022-11-07T19:24:40.721Z,956.00
2022-11-07T19:27:07.065Z,956.06
2022-11-07T19:29:33.429Z,956.07
2022-11-07T19:31:59.748Z,956.07
2022-11-07T19:34:26.095Z,956.11
2022-11-07T19:36:52.449Z,956.14
2022-11-07T19:39:18.802Z,956.18
2022-11-07T19:41:45.189Z,956.26
2022-11-07T19:44:11.504Z,956.25
2022-11-07T19:46:37.830Z,956.19
2022-11-07T19:49:04.182Z,956.19
2022-11-07T19:51:30.507Z,956.20
2022-11-07T19:53:56.859Z,956.16
2022-11-07T19:56:23.221Z,956.20
2022-11-07T19:58:49.559Z,956.20
2022-11-07T20:01:15.930Z,956.18
2022-11-07T20:03:42.234Z,956.18
2022-11-07T20:06:08.627Z,956.12
2022-11-07T20:08:34.953Z,956.15
2022-11-07T20:11:01.398Z,956.09
2022-11-07T20:13:27.764Z,956.13
2022-11-07T20:15:54.090Z,956.11
2022-11-07T20:18:20.413Z,956.15
2022-11-07T20:20:46.746Z,956.10
2022-11-07T20:23:13.090Z,956.19
2022-11-07T20:25:39.427Z,956.14
2022-11-07T20:28:05.801Z,956.16
2022-11-07T20:30:32.160Z,956.22
2022-11-07T20:32:58.508Z,956.21
2022-11-07T20:35:24.876Z,956.28
2022-11-07T20:37:51.227Z,956.32
2022-11-07T20:40:17.621Z,956.24
2022-11-07T20:42:44.001Z,956.28
2022-11-07T20:45:10.326Z,956.36
2022-11-07T20:47:36.735Z,956.29
2022-11-07T20:50:03.219Z,956.30
2022-11-07T20:52:29.609Z,956.37
2022-11-07T20:54:55.963Z,956.34
2022-11-07T20:57:22.343Z,956.29
2022-11-07T20:59:48.640Z,956.29
2022-11-07T21:02:15.021Z,956.38
2022-11-07T21:05:03.336Z,956.36
2022-11-07T21:07:07.692Z,956.39
2022-11-07T21:09:34.151Z,956.34
2022-11-07T21:12:00.518Z,956.37
2022-11-07T21:14:26.821Z,956.37
2022-11-07T21:16:53.210Z,956.35
2022-11-07T21:19:19.543Z,956.36
2022-11-07T21:21:45.859Z,956.39
2022-11-07T21:24:12.193Z,956.37
2022-11-07T21:26:38.549Z,956.38
2022-11-07T21:29:04.893Z,956.41
2022-11-07T21:31:31.230Z,956.46
2022-11-07T21:33:57.586Z,956.44
2022-11-07T21:36:23.915Z,956.34
2022-11-07T21:38:50.311Z,956.39
2022-11-07T21:41:16.620Z,956.41
2022-11-07T21:43:42.950Z,956.42
2022-11-07T21:46:09.351Z,956.46
2022-11-07T21:48:35.665Z,956.45
2022-11-07T21:51:01.984Z,956.48
2022-11-07T21:53:28.353Z,956.47
2022-11-07T21:55:54.679Z,956.45
2022-11-07T21:58:21.004Z,956.47
2022-11-07T22:00:47.337Z,956.48
2022-11-07T22:03:13.796Z,956.52
2022-11-07T22:05:39.996Z,956.47
2022-11-07T22:08:06.402Z,956.56
2022-11-07T22:10:32.720Z,956.56
2022-11-07T22:12:59.091Z,956.55
2022-11-07T22:15:25.368Z,956.53
2022-11-07T22:17:51.713Z,956.63
2022-11-07T22:20:18.062Z,956.68
2022-11-07T22:22:44.387Z,956.58
2022-11-07T22:25:10.729Z,956.57
2022-11-07T22:27:37.090Z,956.63
2022-11-07T22:30:03.415Z,956.59
2022-11-07T22:32:29.756Z,956.69
2022-11-07T22:34:56.084Z,956.68
2022-11-07T22:37:22.431Z,956.68
2022-11-07T22:39:48.752Z,956.64
2022-11-07T22:42:18.515Z,956.68
2022-11-07T22:44:41.475Z,956.61
2022-11-07T22:47:07.802Z,956.62
2022-11-07T22:49:34.143Z,956.67
2022-11-07T22:52:00.522Z,956.65
2022-11-07T22:54:26.835Z,956.69
2022-11-07T22:56:53.166Z,956.72
2022-11-07T22:59:19.511Z,956.77
2022-11-07T23:01:45.913Z,956.70
2022-11-07T23:04:12.206Z,956.76
2022-11-07T23:06:38.540Z,956.74
2022-11-07T23:09:04.896Z,956.72
2022-11-07T23:11:48.374Z,956.69
2022-11-07T23:13:57.572Z,956.72
2022-11-07T23:16:25.770Z,956.67
2022-11-07T23:18:50.327Z,956.66
2022-11-07T23:21:16.650Z,956.64
2022-11-07T23:23:42.992Z,956.60
2022-11-07T23:26:09.377Z,956.63
2022-11-07T23:28:35.727Z,956.64
2022-11-07T23:31:02.076Z,956.62
2022-11-07T23:33:28.426Z,956.55
2022-11-07T23:35:54.775Z,956.58
2022-11-07T23:38:21.101Z,956.53
2022-11-07T23:40:47.426Z,956.56
2022-11-07T23:43:13.766Z,956.58
2022-11-07T23:45:40.099Z,956.63
2022-11-07T23:48:06.419Z,956.54
2022-11-07T23:50:32.763Z,956.60
2022-11-07T23:52:59.132Z,956.63
2022-11-07T23:55:25.479Z,956.63
2022-11-07T23:57:51.821Z,956.54
